Time;durP1;ratioP1;P1;durP2;ratioP2;P2;SDS_P1;SDS_P2;PMS_P1;PMS_P2;Temp;Humidity;BMP_temperature;BMP_pressure;BME280_temperature;BME280_humidity;BME280_pressure;Samples;Min_cycle;Max_cycle;Signal;HPM_P1;HPM_P2
2022/06/03 00:00:46;;;;;;;10.13;5.83;;;;;;;29.88;40.85;94838.41;5086218;28;20447;-76
2022/06/03 00:03:36;;;;;;;5.63;5.17;;;;;;;30.00;40.59;94824.31;5085443;28;20412;-76
2022/06/03 00:06:21;;;;;;;7.30;6.23;;;;;;;30.11;40.36;94841.81;5076134;28;20905;-77
2022/06/03 00:09:24;;;;;;;6.07;5.50;;;;;;;30.36;39.67;94843.00;5087509;28;20979;-76
2022/06/03 00:12:38;;;;;;;13.73;6.53;;;;;;;30.05;39.99;94837.69;5088206;28;20435;-75
2022/06/03 00:15:35;;;;;;;11.60;6.27;;;;;;;29.66;40.81;94828.44;5064812;28;21010;-76
2022/06/03 00:18:16;;;;;;;10.23;6.73;;;;;;;29.90;40.20;94829.97;5093964;28;20413;-76
2022/06/03 00:20:41;;;;;;;7.60;6.23;;;;;;;30.15;39.88;94826.56;5084787;28;20436;-76
2022/06/03 00:23:23;;;;;;;7.70;6.90;;;;;;;30.20;39.59;94830.22;5081501;28;20435;-76
2022/06/03 00:26:00;;;;;;;9.40;6.67;;;;;;;29.98;40.12;94837.31;5076665;28;20182;-76
2022/06/03 00:28:51;;;;;;;6.47;5.87;;;;;;;29.29;41.61;94829.69;5101911;28;20419;-76
2022/06/03 00:31:28;;;;;;;8.80;7.30;;;;;;;29.49;41.39;94831.84;5086248;28;20424;-76
2022/06/03 00:34:17;;;;;;;7.67;6.77;;;;;;;29.60;41.25;94832.41;5086055;28;20482;-76
2022/06/03 00:37:03;;;;;;;8.40;6.00;;;;;;;29.67;41.14;94838.16;5101375;28;20464;-75
2022/06/03 00:39:46;;;;;;;6.93;6.43;;;;;;;29.59;41.19;94830.78;5085191;28;20407;-75
2022/06/03 00:42:29;;;;;;;8.53;5.83;;;;;;;29.58;41.19;94829.22;5084450;28;20423;-76
2022/06/03 00:45:32;;;;;;;7.37;6.63;;;;;;;29.50;41.42;94824.56;5085487;28;20400;-76
2022/06/03 00:48:35;;;;;;;7.00;6.40;;;;;;;29.30;41.88;94823.97;5070695;28;20481;-77
2022/06/03 00:51:32;;;;;;;9.57;5.90;;;;;;;29.43;41.94;94826.91;5113776;28;20503;-76
2022/06/03 00:54:45;;;;;;;6.40;6.00;;;;;;;28.95;42.59;94829.13;5073747;28;20424;-76
2022/06/03 00:57:41;;;;;;;6.53;6.03;;;;;;;29.08;42.18;94827.47;5054287;28;20527;-77
2022/06/03 01:00:19;;;;;;;8.83;6.37;;;;;;;29.13;41.92;94824.69;5066024;28;20393;-76
2022/06/03 01:03:06;;;;;;;7.50;6.30;;;;;;;29.20;42.05;94821.56;5080394;28;20423;-76
2022/06/03 01:05:49;;;;;;;7.00;6.20;;;;;;;29.20;41.98;94821.56;5084994;28;20412;-76
2022/06/03 01:08:47;;;;;;;6.13;5.60;;;;;;;29.11;41.89;94818.78;5069392;28;20408;-76
2022/06/03 01:11:29;;;;;;;6.57;5.27;;;;;;;28.90;42.56;94821.16;5083808;28;21052;-76
2022/06/03 01:14:06;;;;;;;7.10;5.30;;;;;;;29.21;41.82;94820.44;5072009;28;20401;-76
2022/06/03 01:16:49;;;;;;;7.20;5.43;;;;;;;28.92;42.43;94820.88;5084327;28;20475;-76
2022/06/03 01:19:39;;;;;;;5.73;5.33;;;;;;;28.85;42.53;94823.97;5068799;28;20841;-76
2022/06/03 01:22:29;;;;;;;7.30;5.60;;;;;;;28.75;43.15;94825.00;5070178;28;20405;-75
2022/06/03 01:25:36;;;;;;;7.00;6.33;;;;;;;28.72;43.18;94814.88;5080861;28;20447;-76
2022/06/03 01:28:10;;;;;;;7.77;6.00;;;;;;;28.35;44.03;94799.78;5084203;28;20507;-76
2022/06/03 01:31:15;;;;;;;6.23;5.60;;;;;;;28.55;43.70;94804.75;5085762;28;20424;-77
2022/06/03 01:33:46;;;;;;;7.83;6.60;;;;;;;28.73;43.18;94804.88;5068344;28;20551;-75
2022/06/03 01:36:17;;;;;;;7.13;6.20;;;;;;;28.74;43.36;94801.88;5084962;28;20483;-76
2022/06/03 01:38:49;;;;;;;6.70;6.10;;;;;;;28.88;43.12;94807.22;5085152;28;20565;-77
2022/06/03 01:41:31;;;;;;;7.17;6.47;;;;;;;28.77;43.23;94808.56;5085293;28;21001;-76
2022/06/03 01:44:11;;;;;;;6.13;5.63;;;;;;;28.60;43.67;94806.53;5085379;28;20416;-76
2022/06/03 01:47:01;;;;;;;6.30;5.73;;;;;;;28.81;43.25;94812.22;5065319;28;20484;-76
2022/06/03 01:49:55;;;;;;;5.63;5.23;;;;;;;28.53;43.85;94812.34;5082780;28;20411;-76
2022/06/03 01:52:53;;;;;;;6.50;5.90;;;;;;;28.39;44.11;94811.53;5082819;28;20420;-75
2022/06/03 01:55:43;;;;;;;6.67;6.17;;;;;;;28.23;44.78;94821.84;5083347;28;20502;-76
2022/06/03 01:58:48;;;;;;;7.30;6.00;;;;;;;28.08;44.98;94822.97;5084083;28;20469;-75
2022/06/03 02:01:51;;;;;;;7.57;5.50;;;;;;;27.72;45.76;94820.97;5064661;28;20426;-77
2022/06/03 02:04:26;;;;;;;8.90;5.60;;;;;;;27.97;44.86;94821.59;5066330;28;20407;-76
2022/06/03 02:07:17;;;;;;;7.83;7.07;;;;;;;28.17;44.80;94821.16;5084964;28;20499;-75
2022/06/03 02:10:04;;;;;;;6.67;5.20;;;;;;;28.32;44.05;94824.63;5085199;28;20420;-76
2022/06/03 02:12:41;;;;;;;8.00;6.17;;;;;;;28.11;44.70;94825.03;5084789;28;20423;-76
2022/06/03 02:15:50;;;;;;;6.77;6.27;;;;;;;28.18;44.39;94830.03;5083640;28;21035;-76
2022/06/03 02:18:49;;;;;;;6.33;5.73;;;;;;;28.09;44.49;94829.94;5069421;28;20462;-76
2022/06/03 02:21:29;;;;;;;8.27;5.90;;;;;;;28.37;43.80;94824.50;5088487;28;20453;-76
2022/06/03 02:24:25;;;;;;;7.37;6.17;;;;;;;28.17;44.24;94834.63;5104097;28;20506;-76
2022/06/03 02:27:28;;;;;;;7.47;6.80;;;;;;;28.36;43.94;94828.28;5088815;28;20454;-76
2022/06/03 02:30:25;;;;;;;7.30;6.33;;;;;;;27.80;45.44;94828.31;5088148;28;20814;-76
2022/06/03 02:33:12;;;;;;;7.90;7.30;;;;;;;28.05;44.74;94834.31;5087893;28;20422;-76
2022/06/03 02:36:07;;;;;;;8.07;6.77;;;;;;;28.35;43.84;94834.78;5089958;28;20455;-75
2022/06/03 02:38:35;;;;;;;6.53;5.73;;;;;;;27.38;46.01;94832.88;5088122;28;20423;-76
2022/06/03 02:41:19;;;;;;;7.37;6.70;;;;;;;27.56;45.67;94841.94;5088258;28;20914;-76
2022/06/03 02:44:35;;;;;;;6.37;5.80;;;;;;;27.64;45.45;94845.84;5088002;28;20424;-76
2022/06/03 02:47:30;;;;;;;8.70;6.57;;;;;;;27.93;44.80;94836.75;5087877;28;20497;-76
2022/06/03 02:50:25;;;;;;;7.43;6.57;;;;;;;28.06;44.73;94846.69;5089165;28;20425;-76
2022/06/03 02:53:25;;;;;;;7.13;6.47;;;;;;;28.30;44.10;94848.34;5083203;28;20414;-76
2022/06/03 02:56:12;;;;;;;7.30;6.70;;;;;;;28.23;44.25;94852.25;5086481;28;20459;-76
2022/06/03 02:58:43;;;;;;;7.77;6.80;;;;;;;28.30;44.02;94848.34;5087545;28;20412;-75
2022/06/03 03:01:31;;;;;;;8.83;7.43;;;;;;;28.39;43.67;94849.22;5103329;28;20435;-75
2022/06/03 03:04:27;;;;;;;9.27;7.63;;;;;;;28.45;43.66;94847.22;5087539;28;20404;-76
2022/06/03 03:07:09;;;;;;;13.93;7.80;;;;;;;28.69;43.02;94847.00;5086170;28;20441;-76
2022/06/03 03:09:43;;;;;;;12.53;7.83;;;;;;;28.57;43.38;94853.72;5087419;28;20404;-75
2022/06/03 03:12:27;;;;;;;7.50;6.80;;;;;;;28.57;43.59;94851.03;5087786;28;20427;-76
2022/06/03 03:15:11;;;;;;;7.77;7.07;;;;;;;28.65;43.50;94846.00;5087059;28;20479;-75
2022/06/03 03:18:08;;;;;;;8.93;8.00;;;;;;;27.81;45.22;94846.06;5087145;28;20542;-75
2022/06/03 03:20:52;;;;;;;7.60;6.90;;;;;;;28.04;44.96;94847.00;5085948;28;20420;-76
2022/06/03 03:23:45;;;;;;;8.80;7.33;;;;;;;28.13;44.45;94851.66;5085642;28;20465;-77
2022/06/03 03:26:30;;;;;;;7.70;7.10;;;;;;;27.93;45.16;94850.19;5085735;28;20423;-76
2022/06/03 03:29:09;;;;;;;11.47;6.90;;;;;;;28.36;44.45;94860.59;5065496;28;20437;-76
2022/06/03 03:31:56;;;;;;;9.70;8.70;;;;;;;28.55;43.94;94864.00;5073368;28;20932;-76
2022/06/03 03:34:49;;;;;;;8.20;7.53;;;;;;;28.79;43.39;94854.84;5085646;28;20561;-76
2022/06/03 03:37:42;;;;;;;9.60;8.10;;;;;;;28.79;43.22;94857.53;5085518;28;20527;-76
2022/06/03 03:40:40;;;;;;;7.20;6.60;;;;;;;28.74;43.52;94855.78;5086739;28;20441;-76
2022/06/03 03:43:14;;;;;;;9.50;7.03;;;;;;;28.71;43.61;94864.44;5088461;28;20413;-76
2022/06/03 03:46:08;;;;;;;10.93;7.50;;;;;;;28.70;43.58;94868.22;5067458;28;20420;-76
2022/06/03 03:48:39;;;;;;;12.47;7.90;;;;;;;29.04;42.93;94874.22;5080820;28;20414;-76
2022/06/03 03:51:07;;;;;;;11.93;8.93;;;;;;;29.00;43.14;94869.41;5087235;28;20416;-76
2022/06/03 03:53:51;;;;;;;9.00;8.10;;;;;;;29.24;42.57;94868.38;5085128;28;20420;-75
2022/06/03 03:56:54;;;;;;;10.93;9.37;;;;;;;29.28;42.32;94872.03;5086439;28;20467;-76
2022/06/03 03:59:39;;;;;;;10.57;7.20;;;;;;;29.22;42.50;94875.97;5086990;28;20408;-76
2022/06/03 04:02:16;;;;;;;8.37;7.47;;;;;;;28.97;43.23;94878.13;5085308;28;20434;-77
2022/06/03 04:04:45;;;;;;;11.23;6.90;;;;;;;29.12;42.85;94881.56;5065867;28;20932;-76
2022/06/03 04:07:47;;;;;;;10.13;7.07;;;;;;;29.04;43.15;94882.31;5085810;28;20412;-76
2022/06/03 04:10:34;;;;;;;8.80;5.90;;;;;;;29.54;42.12;94877.59;5086495;28;21027;-76
2022/06/03 04:13:05;;;;;;;7.23;6.53;;;;;;;29.77;41.72;94870.28;5086556;28;20392;-76
2022/06/03 04:15:33;;;;;;;8.03;6.33;;;;;;;30.04;41.48;94873.88;5086182;28;20475;-76
2022/06/03 04:18:24;;;;;;;12.50;6.40;;;;;;;30.19;41.17;94878.03;5082456;28;20432;-77
2022/06/03 04:21:08;;;;;;;8.80;7.37;;;;;;;30.01;41.33;94869.06;5086337;28;20544;-76
2022/06/03 04:24:11;;;;;;;7.33;6.70;;;;;;;29.98;41.32;94875.13;5084600;28;20514;-76
2022/06/03 04:26:57;;;;;;;8.50;6.37;;;;;;;29.41;42.49;94866.88;5068018;28;20946;-77
2022/06/03 04:30:01;;;;;;;7.60;6.90;;;;;;;30.00;41.21;94872.91;5066136;28;20401;-76
2022/06/03 04:33:08;;;;;;;7.10;6.50;;;;;;;30.31;40.68;94878.22;5079735;28;20495;-76
2022/06/03 04:35:43;;;;;;;7.30;6.63;;;;;;;30.34;40.67;94883.03;5071380;28;20468;-76
2022/06/03 04:38:46;;;;;;;7.07;6.37;;;;;;;30.59;40.46;94885.31;5066730;28;20439;-76
2022/06/03 04:41:50;;;;;;;10.07;6.70;;;;;;;30.92;39.83;94886.50;5068202;28;20412;-76
2022/06/03 04:44:38;;;;;;;11.43;6.90;;;;;;;30.75;40.12;94886.44;5066167;28;20442;-75
2022/06/03 04:47:21;;;;;;;9.77;7.30;;;;;;;30.93;40.11;94898.88;5086097;28;20479;-76
2022/06/03 04:50:11;;;;;;;8.83;6.70;;;;;;;28.12;45.90;94906.59;5086932;28;20935;-75
2022/06/03 04:52:49;;;;;;;13.10;6.90;;;;;;;30.07;41.79;94908.34;5084441;28;20431;-75
2022/06/03 04:55:52;;;;;;;10.40;6.87;;;;;;;29.35;43.39;94907.47;5083995;28;20550;-76
2022/06/03 04:59:02;;;;;;;15.93;7.43;;;;;;;30.25;41.66;94922.69;5082668;28;20411;-76
2022/06/03 05:01:41;;;;;;;10.63;7.30;;;;;;;30.03;42.04;94918.19;5050882;28;20452;-77
2022/06/03 05:04:40;;;;;;;10.00;7.07;;;;;;;29.93;42.24;94916.53;5079348;28;20452;-76
2022/06/03 05:07:40;;;;;;;10.53;7.40;;;;;;;30.03;41.77;94920.88;5085596;28;20479;-76
2022/06/03 05:10:44;;;;;;;8.50;6.83;;;;;;;29.79;42.02;94915.84;5084069;28;20419;-76
2022/06/03 05:13:46;;;;;;;6.03;5.20;;;;;;;30.83;39.81;94925.38;5085178;28;20418;-76
2022/06/03 05:20:03;;;;;;;10.67;6.70;;;;;;;30.81;40.40;94925.72;5085748;28;20426;-76
2022/06/03 05:23:06;;;;;;;10.40;7.20;;;;;;;30.78;40.35;94923.66;5063384;28;20425;-76
2022/06/03 05:25:58;;;;;;;8.23;6.60;;;;;;;30.86;40.06;94924.75;5077913;28;20487;-76
2022/06/03 05:28:35;;;;;;;14.00;6.27;;;;;;;30.71;39.90;94929.50;5084846;28;20416;-75
2022/06/03 05:31:29;;;;;;;9.03;7.70;;;;;;;30.22;41.16;94936.03;5083844;28;20429;-77
2022/06/03 05:34:36;;;;;;;10.20;6.90;;;;;;;31.25;39.97;94937.38;5084797;28;20981;-76
2022/06/03 05:37:42;;;;;;;9.40;7.10;;;;;;;30.51;41.16;94944.41;5062429;28;20475;-75
2022/06/03 05:40:15;;;;;;;7.13;6.53;;;;;;;31.31;40.28;94944.22;5084859;28;20435;-76
2022/06/03 05:43:06;;;;;;;7.93;6.03;;;;;;;31.17;39.94;94946.28;5085539;28;20404;-77
2022/06/03 05:45:53;;;;;;;8.10;5.83;;;;;;;32.07;38.82;94934.72;5083502;28;20517;-76
2022/06/03 05:48:51;;;;;;;7.40;5.87;;;;;;;31.57;39.28;94938.00;5100729;28;20787;-76
2022/06/03 05:51:35;;;;;;;7.80;6.33;;;;;;;31.13;39.93;94938.03;5072011;28;20520;-76
2022/06/03 05:54:29;;;;;;;6.93;6.23;;;;;;;31.35;39.40;94935.47;5088088;28;20408;-76
2022/06/03 05:57:32;;;;;;;11.07;5.70;;;;;;;31.76;38.61;94928.72;5074720;28;20575;-76
2022/06/03 06:00:09;;;;;;;6.80;6.10;;;;;;;31.77;39.07;94919.50;5067173;28;20412;-76
2022/06/03 06:02:38;;;;;;;8.20;7.40;;;;;;;31.60;38.99;94910.28;5079405;28;20420;-76
2022/06/03 06:05:21;;;;;;;6.20;5.67;;;;;;;31.70;39.05;94915.38;5088902;28;20416;-76
2022/06/03 06:08:09;;;;;;;5.97;5.47;;;;;;;31.32;39.81;94907.94;5088592;28;20465;-76
2022/06/03 06:10:41;;;;;;;6.20;5.70;;;;;;;31.55;39.34;94913.19;5079457;28;20431;-76
2022/06/03 06:13:34;;;;;;;8.87;6.63;;;;;;;31.58;39.54;94906.34;5087398;28;20414;-75
2022/06/03 06:16:07;;;;;;;5.90;5.30;;;;;;;32.42;37.57;94907.47;5081454;28;20460;-77
2022/06/03 06:18:41;;;;;;;8.83;5.93;;;;;;;32.86;37.14;94904.53;5088611;28;20927;-76
2022/06/03 06:21:23;;;;;;;6.77;6.17;;;;;;;32.99;36.78;94891.81;5088375;28;20432;-76
2022/06/03 06:23:55;;;;;;;8.83;6.40;;;;;;;33.11;36.64;94900.03;5067495;28;20439;-76
2022/06/03 06:26:43;;;;;;;9.87;6.50;;;;;;;32.16;38.65;94906.81;5068583;28;20417;-76
2022/06/03 06:29:29;;;;;;;9.40;6.60;;;;;;;32.77;37.77;94906.50;5084511;28;20428;-76
2022/06/03 06:32:10;;;;;;;7.17;6.03;;;;;;;33.31;36.91;94903.06;5087244;28;20424;-76
2022/06/03 06:34:53;;;;;;;9.53;6.43;;;;;;;33.17;36.70;94904.13;5084844;28;20461;-76
2022/06/03 06:37:34;;;;;;;6.60;5.87;;;;;;;33.02;37.06;94902.78;5083723;28;20452;-76
2022/06/03 06:40:09;;;;;;;9.00;6.97;;;;;;;33.64;35.83;94906.59;5068400;28;20389;-76
2022/06/03 06:42:41;;;;;;;8.90;6.07;;;;;;;34.41;34.70;94906.03;5080088;28;20711;-76
2022/06/03 06:45:29;;;;;;;7.77;6.60;;;;;;;33.01;37.19;94900.41;5074913;28;20553;-75
2022/06/03 06:48:04;;;;;;;8.07;5.63;;;;;;;33.85;34.70;94900.31;5067825;28;20415;-75
2022/06/03 06:51:03;;;;;;;10.10;5.87;;;;;;;33.34;35.52;94894.25;5072318;28;20430;-76
2022/06/03 06:53:39;;;;;;;12.00;5.60;;;;;;;34.20;33.12;94899.91;5088000;28;20422;-76
2022/06/03 06:56:27;;;;;;;5.87;4.93;;;;;;;35.00;32.53;94890.31;5087819;28;20455;-75
2022/06/03 06:59:07;;;;;;;6.60;5.30;;;;;;;33.64;33.83;94889.53;5086162;28;20419;-75
2022/06/03 07:01:44;;;;;;;6.07;5.57;;;;;;;33.94;33.79;94887.44;5086013;28;20931;-75
2022/06/03 07:04:14;;;;;;;5.40;4.90;;;;;;;33.57;34.47;94890.03;5087315;28;20481;-76
2022/06/03 07:06:54;;;;;;;7.80;5.00;;;;;;;32.81;35.46;94888.44;5087568;28;20411;-76
2022/06/03 07:09:27;;;;;;;6.13;4.93;;;;;;;32.67;35.10;94884.06;5086089;28;20513;-75
2022/06/03 07:11:59;;;;;;;5.87;5.37;;;;;;;32.51;35.25;94893.06;5083394;28;20430;-76
2022/06/03 07:14:29;;;;;;;6.67;5.30;;;;;;;32.91;34.98;94889.97;5086639;28;20420;-75
2022/06/03 07:20:01;;;;;;;6.13;5.17;;;;;;;34.73;32.22;94889.94;5087683;28;20407;-75
2022/06/03 07:22:37;;;;;;;9.57;5.70;;;;;;;33.68;33.75;94884.22;5087410;28;20432;-75
2022/06/03 07:25:44;;;;;;;5.93;5.33;;;;;;;33.69;33.85;94880.34;5087233;28;20467;-75
2022/06/03 07:28:13;;;;;;;8.07;6.03;;;;;;;33.00;35.54;94883.34;5087334;28;20821;-75
2022/06/03 07:30:56;;;;;;;6.77;6.17;;;;;;;34.47;33.22;94886.75;5085304;28;20416;-75
2022/06/03 07:33:30;;;;;;;9.00;6.20;;;;;;;34.71;32.91;94888.69;5084389;28;20961;-76
2022/06/03 07:36:33;;;;;;;5.63;5.07;;;;;;;35.37;31.54;94890.22;5086876;28;20466;-76
2022/06/03 07:39:18;;;;;;;11.27;5.90;;;;;;;35.08;31.74;94889.41;5085692;28;20420;-76
2022/06/03 07:41:44;;;;;;;6.77;5.60;;;;;;;35.86;30.89;94883.75;5065689;28;20432;-76
2022/06/03 07:44:21;;;;;;;8.23;5.60;;;;;;;35.12;31.96;94894.94;5086850;28;20431;-75
2022/06/03 07:47:08;;;;;;;10.83;6.23;;;;;;;35.05;32.16;94895.53;5086720;28;20169;-76
2022/06/03 07:49:37;;;;;;;14.40;6.40;;;;;;;34.82;32.05;94906.13;5085546;28;20417;-76
2022/06/03 07:52:10;;;;;;;5.93;5.40;;;;;;;35.81;30.83;94908.50;5086307;28;20431;-75
2022/06/03 07:54:37;;;;;;;8.37;7.00;;;;;;;34.39;32.99;94908.28;5086735;28;20531;-75
2022/06/03 07:57:17;;;;;;;10.20;7.10;;;;;;;34.29;33.24;94908.75;5085631;28;20467;-76
2022/06/03 07:59:43;;;;;;;6.90;6.20;;;;;;;34.37;32.47;94909.75;5085811;28;20411;-76
2022/06/03 08:02:13;;;;;;;8.27;5.80;;;;;;;35.06;31.08;94901.75;5085305;28;20434;-75
2022/06/03 08:04:39;;;;;;;7.40;6.70;;;;;;;34.76;31.52;94904.78;5082588;28;20444;-76
2022/06/03 08:12:59;;;;;;;6.47;5.90;;;;;;;35.23;31.29;94912.41;5081005;28;20411;-76
2022/06/03 08:15:39;;;;;;;7.60;6.17;;;;;;;35.97;30.58;94912.03;5084791;28;20451;-76
2022/06/03 08:18:07;;;;;;;13.20;6.30;;;;;;;36.89;29.25;94914.63;5083458;28;20407;-76
2022/06/03 08:20:45;;;;;;;13.63;6.53;;;;;;;36.01;29.79;94923.03;5085998;28;20700;-76
2022/06/03 08:23:11;;;;;;;6.93;6.43;;;;;;;34.93;31.46;94922.78;5086108;28;20396;-76
2022/06/03 08:25:41;;;;;;;10.00;6.80;;;;;;;34.80;31.52;94922.78;5085790;28;20427;-76
2022/06/03 08:28:12;;;;;;;9.77;6.60;;;;;;;35.28;31.17;94924.97;5085866;28;20393;-76
2022/06/03 08:30:40;;;;;;;7.87;6.30;;;;;;;36.31;29.78;94920.69;5083759;28;20435;-76
2022/06/03 08:33:10;;;;;;;6.13;5.40;;;;;;;36.07;29.33;94921.63;5084743;28;20483;-76
2022/06/03 08:35:43;;;;;;;7.17;6.33;;;;;;;36.08;29.94;94924.00;5084268;28;20520;-76
2022/06/03 08:38:22;;;;;;;6.77;6.17;;;;;;;36.13;30.21;94921.00;5084205;28;20865;-76
2022/06/03 08:41:18;;;;;;;7.50;6.77;;;;;;;36.44;30.16;94924.09;5101132;28;20590;-76
2022/06/03 08:44:21;;;;;;;9.70;7.70;;;;;;;35.03;31.87;94925.00;5085680;28;20432;-76
2022/06/03 08:47:00;;;;;;;7.67;5.77;;;;;;;34.72;32.19;94918.28;5101002;28;20886;-76
2022/06/03 08:49:29;;;;;;;5.90;5.27;;;;;;;35.18;31.96;94921.59;5085436;28;20451;-76
2022/06/03 08:52:03;;;;;;;9.53;6.33;;;;;;;33.82;33.57;94914.56;5085648;28;20420;-76
2022/06/03 08:55:05;;;;;;;14.93;7.40;;;;;;;34.52;32.62;94919.16;5084098;28;20408;-75
2022/06/03 08:57:37;;;;;;;9.00;6.00;;;;;;;34.75;32.12;94928.44;5073664;28;20961;-76
2022/06/03 09:00:21;;;;;;;13.90;7.97;;;;;;;36.61;29.54;94934.63;5076338;28;20405;-75
2022/06/03 09:03:00;;;;;;;7.50;6.80;;;;;;;34.81;31.38;94929.00;5085246;28;20396;-76
2022/06/03 09:05:32;;;;;;;5.87;5.37;;;;;;;35.85;29.79;94937.41;5072693;28;20490;-76
2022/06/03 09:08:16;;;;;;;6.53;5.13;;;;;;;35.41;30.01;94929.22;5080908;28;20413;-75
2022/06/03 09:10:57;;;;;;;7.17;6.47;;;;;;;36.46;28.86;94943.63;5088014;28;20427;-75
2022/06/03 09:13:36;;;;;;;6.47;5.97;;;;;;;36.04;29.68;94935.97;5085694;28;20890;-76
2022/06/03 09:16:05;;;;;;;8.90;6.50;;;;;;;35.17;30.54;94940.94;5082937;28;20463;-75
2022/06/03 09:18:44;;;;;;;6.63;6.03;;;;;;;34.98;31.11;94934.22;5083845;28;20591;-76
2022/06/03 09:21:13;;;;;;;11.33;6.43;;;;;;;35.62;30.29;94947.28;5085254;28;20419;-76
2022/06/03 09:23:54;;;;;;;6.47;5.67;;;;;;;36.57;28.13;94933.75;5083811;28;20773;-76
2022/06/03 09:26:29;;;;;;;7.07;5.90;;;;;;;37.40;27.75;94930.94;5085025;28;20419;-76
2022/06/03 09:28:57;;;;;;;12.23;6.10;;;;;;;36.47;28.60;94924.19;5078379;28;20417;-76
2022/06/03 09:31:24;;;;;;;7.43;5.67;;;;;;;36.38;29.34;94936.44;5068002;28;20459;-76
2022/06/03 09:33:51;;;;;;;10.03;6.20;;;;;;;35.63;30.78;94941.50;5067766;28;20480;-76
2022/06/03 09:36:19;;;;;;;7.33;5.77;;;;;;;34.93;32.31;94947.25;5083960;28;20578;-76
2022/06/03 09:38:58;;;;;;;9.83;6.47;;;;;;;33.99;33.58;94943.44;5089452;28;20416;-76
2022/06/03 09:41:28;;;;;;;6.70;6.10;;;;;;;34.66;32.40;94937.84;5089195;28;20438;-76
2022/06/03 09:43:56;;;;;;;11.47;5.30;;;;;;;35.23;30.68;94939.63;5088811;28;20507;-76
2022/06/03 09:46:25;;;;;;;4.80;4.40;;;;;;;33.79;30.75;94936.97;5089033;28;20530;-76
2022/06/03 09:48:51;;;;;;;6.50;5.87;;;;;;;35.50;28.69;94938.03;5074561;28;20413;-76
2022/06/03 09:54:22;;;;;;;5.30;4.73;;;;;;;36.27;27.22;94936.94;5088820;28;20855;-77
2022/06/03 09:56:51;;;;;;;5.13;4.60;;;;;;;36.25;26.58;94930.28;5078572;28;20456;-77
2022/06/03 09:59:20;;;;;;;6.23;4.83;;;;;;;35.78;26.99;94942.69;5084709;28;20424;-75
2022/06/03 10:01:46;;;;;;;5.93;5.40;;;;;;;35.65;27.30;94939.22;5088793;28;20459;-76
2022/06/03 10:04:12;;;;;;;6.23;4.40;;;;;;;36.00;26.47;94941.31;5088295;28;20439;-77
2022/06/03 10:06:46;;;;;;;4.60;4.20;;;;;;;35.55;27.93;94945.16;5081528;28;20561;-76
2022/06/03 10:15:37;;;;;;;7.47;5.70;;;;;;;35.11;29.20;94948.56;5088767;28;20871;-76
2022/06/03 10:17:31;;;;;;;6.03;5.43;;;;;;;36.06;27.46;94941.84;5088400;28;20427;-77
2022/06/03 10:19:57;;;;;;;5.80;5.30;;;;;;;34.40;29.61;94939.78;5088569;28;20423;-77
2022/06/03 10:22:22;;;;;;;5.87;5.27;;;;;;;34.39;29.51;94938.19;5088239;28;20558;-77
2022/06/03 10:24:48;;;;;;;7.50;5.63;;;;;;;35.15;28.44;94938.56;5088383;28;20189;-76
2022/06/03 10:27:18;;;;;;;8.93;5.27;;;;;;;35.27;28.15;94939.69;5087049;28;20181;-76
2022/06/03 10:29:49;;;;;;;6.63;6.00;;;;;;;34.41;29.73;94935.13;5088210;28;20416;-76
2022/06/03 10:32:19;;;;;;;7.60;5.60;;;;;;;33.00;32.36;94944.94;5088005;28;20479;-76
2022/06/03 10:34:45;;;;;;;6.37;5.70;;;;;;;34.96;29.53;94943.84;5086445;28;20460;-76
2022/06/03 10:37:20;;;;;;;11.97;6.80;;;;;;;35.45;29.40;94946.44;5088059;28;20577;-77
2022/06/03 10:39:45;;;;;;;7.33;6.17;;;;;;;37.07;27.27;94934.91;5087528;28;20395;-76
2022/06/03 10:42:19;;;;;;;12.27;6.07;;;;;;;37.00;27.54;94934.75;5086533;28;20517;-76
2022/06/03 10:44:54;;;;;;;6.90;6.13;;;;;;;36.76;27.40;94940.47;5086757;28;20193;-76
2022/06/03 10:47:31;;;;;;;10.50;5.93;;;;;;;37.91;25.94;94943.63;5084695;28;20466;-77
2022/06/03 10:50:00;;;;;;;6.30;5.70;;;;;;;37.23;26.45;94943.06;5081684;28;20458;-76
2022/06/03 11:01:06;;;;;;;6.07;5.07;;;;;;;39.24;23.72;94923.81;5087641;28;20407;-77
2022/06/03 11:03:34;;;;;;;5.83;5.43;;;;;;;39.26;23.80;94916.03;5081661;28;20468;-77
2022/06/03 11:06:17;;;;;;;5.87;5.27;;;;;;;38.67;24.10;94907.41;5077805;28;20430;-76
2022/06/03 11:08:59;;;;;;;5.50;4.37;;;;;;;39.07;24.17;94911.50;5086020;28;21021;-76
2022/06/03 11:11:42;;;;;;;10.13;4.63;;;;;;;38.07;23.92;94902.50;5085884;28;20443;-76
2022/06/03 11:14:27;;;;;;;3.70;3.37;;;;;;;38.47;22.85;94901.19;5087697;28;20447;-77
2022/06/03 11:16:53;;;;;;;4.07;3.77;;;;;;;38.11;22.92;94897.91;5102683;28;20462;-76
2022/06/03 11:19:20;;;;;;;5.30;4.80;;;;;;;38.02;23.70;94894.59;5086086;28;20420;-76
2022/06/03 11:21:46;;;;;;;11.80;4.77;;;;;;;39.08;22.76;94893.88;5120050;28;20237;-75
2022/06/03 11:24:11;;;;;;;6.27;4.77;;;;;;;39.82;22.36;94893.19;5086312;28;20419;-76
2022/06/03 11:26:42;;;;;;;9.10;5.20;;;;;;;39.04;22.70;94887.56;5080463;28;20194;-76
2022/06/03 11:29:32;;;;;;;6.23;5.63;;;;;;;37.63;25.10;94881.81;5074230;28;20181;-76
2022/06/03 11:32:00;;;;;;;4.83;4.40;;;;;;;39.37;23.08;94880.56;5085859;28;20432;-76
2022/06/03 11:34:39;;;;;;;4.20;3.90;;;;;;;38.54;23.21;94873.19;5085520;28;20491;-76
2022/06/03 11:37:12;;;;;;;6.00;4.27;;;;;;;38.76;22.64;94868.81;5085252;28;20443;-76
2022/06/03 11:39:49;;;;;;;4.97;4.13;;;;;;;39.47;21.94;94868.16;5086974;28;20426;-76
2022/06/03 11:42:30;;;;;;;5.40;5.00;;;;;;;40.56;21.65;94872.28;5086954;28;20420;-76
2022/06/03 11:45:20;;;;;;;5.43;5.00;;;;;;;40.77;21.26;94857.09;5087148;28;20397;-76
2022/06/03 11:47:49;;;;;;;4.63;4.23;;;;;;;40.29;21.98;94855.19;5084428;28;20502;-76
2022/06/03 11:50:18;;;;;;;6.67;5.20;;;;;;;40.95;21.43;94857.97;5085941;28;20424;-76
2022/06/03 11:52:46;;;;;;;4.97;4.43;;;;;;;40.65;21.42;94849.19;5074525;28;20424;-76
2022/06/03 11:55:12;;;;;;;5.37;4.97;;;;;;;40.59;21.21;94840.53;5076285;28;20488;-78
2022/06/03 11:57:47;;;;;;;5.33;4.80;;;;;;;39.26;22.17;94857.72;5086418;28;20419;-76
2022/06/03 12:00:19;;;;;;;6.90;4.83;;;;;;;38.03;23.20;94855.97;5085258;28;20419;-76
2022/06/03 12:02:44;;;;;;;5.83;5.10;;;;;;;38.84;23.69;94859.53;5082744;28;20415;-76
2022/06/03 12:05:16;;;;;;;5.50;4.93;;;;;;;39.13;22.81;94855.22;5086582;28;20411;-76
2022/06/03 12:07:49;;;;;;;6.37;5.13;;;;;;;40.51;21.63;94850.66;5086492;28;20184;-76
2022/06/03 12:10:29;;;;;;;5.33;4.23;;;;;;;40.59;21.15;94843.25;5086248;28;20864;-75
2022/06/03 12:13:27;;;;;;;6.70;4.70;;;;;;;41.24;20.48;94843.59;5101986;28;20437;-77
2022/06/03 12:15:56;;;;;;;4.20;3.80;;;;;;;39.30;22.60;94845.63;5085468;28;20529;-77
2022/06/03 12:18:39;;;;;;;4.50;4.20;;;;;;;40.25;21.31;94845.38;5086126;28;20420;-77
2022/06/03 12:21:08;;;;;;;4.63;4.30;;;;;;;38.10;23.12;94855.31;5084914;28;20404;-77
2022/06/03 12:23:37;;;;;;;4.20;3.90;;;;;;;37.29;23.24;94845.28;5084812;28;20415;-77
2022/06/03 12:26:27;;;;;;;4.80;4.40;;;;;;;38.15;22.88;94843.28;5086160;28;20477;-76
2022/06/03 12:29:01;;;;;;;5.97;4.10;;;;;;;38.15;22.93;94841.31;5085310;28;20432;-76
2022/06/03 12:31:35;;;;;;;6.03;4.80;;;;;;;39.03;21.75;94848.47;5083554;28;20497;-76
2022/06/03 12:34:01;;;;;;;4.40;4.00;;;;;;;38.12;22.36;94844.81;5086194;28;20471;-76
2022/06/03 12:36:46;;;;;;;4.53;4.23;;;;;;;36.95;23.94;94850.44;5085732;28;20455;-75
2022/06/03 12:39:31;;;;;;;5.53;4.70;;;;;;;36.50;24.00;94846.31;5086597;28;20177;-76
2022/06/03 12:42:01;;;;;;;5.30;4.47;;;;;;;36.24;24.82;94842.25;5095976;28;20440;-76
2022/06/03 12:44:46;;;;;;;5.03;4.60;;;;;;;35.81;25.43;94849.38;5074358;28;20416;-76
2022/06/03 12:47:18;;;;;;;4.17;3.87;;;;;;;37.21;23.63;94849.03;5086171;28;20434;-77
2022/06/03 12:49:43;;;;;;;5.83;4.67;;;;;;;36.78;24.79;94840.72;5084834;28;20481;-78
2022/06/03 12:52:20;;;;;;;5.53;5.03;;;;;;;37.77;23.28;94842.25;5077856;28;20453;-76
2022/06/03 12:54:57;;;;;;;5.10;4.43;;;;;;;36.72;24.10;94842.16;5065912;28;20721;-76
2022/06/03 12:57:37;;;;;;;5.93;4.30;;;;;;;36.74;25.12;94839.88;5085514;28;20459;-76
2022/06/03 13:00:07;;;;;;;5.20;4.70;;;;;;;36.34;24.94;94840.91;5078593;28;20423;-76
2022/06/03 13:02:36;;;;;;;5.10;4.60;;;;;;;36.54;24.58;94849.94;5072628;28;20485;-76
2022/06/03 13:05:01;;;;;;;4.20;3.80;;;;;;;37.15;23.44;94843.06;5081414;28;20772;-76
2022/06/03 13:07:27;;;;;;;5.37;4.63;;;;;;;37.49;23.36;94844.09;5074811;28;20427;-77